sensor_id;sensor_type;location;lat;lon;timestamp;pressure;altitude;pressure_sealevel;temperature;humidity
75697;BME280;64312;44.738;20.612;2023-01-19T00:01:16;98648.25;;;9.77;83.04
75697;BME280;64312;44.738;20.612;2023-01-19T00:03:42;98642.88;;;9.77;83.58
75697;BME280;64312;44.738;20.612;2023-01-19T00:06:09;98641.41;;;9.82;83.40
75697;BME280;64312;44.738;20.612;2023-01-19T00:08:34;98635.78;;;9.83;83.49
75697;BME280;64312;44.738;20.612;2023-01-19T00:11:00;98627.28;;;9.86;82.97
75697;BME280;64312;44.738;20.612;2023-01-19T00:13:26;98629.50;;;9.89;83.02
75697;BME280;64312;44.738;20.612;2023-01-19T00:15:53;98645.41;;;9.91;83.20
75697;BME280;64312;44.738;20.612;2023-01-19T00:18:18;98652.78;;;9.95;82.74
75697;BME280;64312;44.738;20.612;2023-01-19T00:20:45;98665.97;;;9.97;82.91
75697;BME280;64312;44.738;20.612;2023-01-19T00:23:11;98671.25;;;9.92;83.36
75697;BME280;64312;44.738;20.612;2023-01-19T00:25:37;98675.69;;;9.98;83.21
75697;BME280;64312;44.738;20.612;2023-01-19T00:28:10;98679.22;;;9.98;82.80
75697;BME280;64312;44.738;20.612;2023-01-19T00:30:37;98674.44;;;10.00;82.83
75697;BME280;64312;44.738;20.612;2023-01-19T00:33:03;98655.94;;;10.04;82.66
75697;BME280;64312;44.738;20.612;2023-01-19T00:35:28;98640.19;;;10.08;82.62
75697;BME280;64312;44.738;20.612;2023-01-19T00:37:55;98638.69;;;10.12;82.24
75697;BME280;64312;44.738;20.612;2023-01-19T00:40:21;98625.25;;;10.12;82.28
75697;BME280;64312;44.738;20.612;2023-01-19T00:42:47;98626.88;;;10.13;82.12
75697;BME280;64312;44.738;20.612;2023-01-19T00:45:15;98645.63;;;10.19;82.49
75697;BME280;64312;44.738;20.612;2023-01-19T00:47:41;98656.28;;;10.26;81.88
75697;BME280;64312;44.738;20.612;2023-01-19T00:50:08;98667.41;;;10.29;81.60
75697;BME280;64312;44.738;20.612;2023-01-19T00:52:37;98683.91;;;10.33;81.15
75697;BME280;64312;44.738;20.612;2023-01-19T00:55:03;98668.09;;;10.37;81.45
75697;BME280;64312;44.738;20.612;2023-01-19T00:57:29;98663.34;;;10.39;81.31
75697;BME280;64312;44.738;20.612;2023-01-19T00:59:54;98663.91;;;10.41;81.11
75697;BME280;64312;44.738;20.612;2023-01-19T01:02:20;98670.81;;;10.48;80.72
75697;BME280;64312;44.738;20.612;2023-01-19T01:04:45;98667.09;;;10.49;80.72
75697;BME280;64312;44.738;20.612;2023-01-19T01:07:11;98668.50;;;10.52;80.54
75697;BME280;64312;44.738;20.612;2023-01-19T01:09:36;98658.56;;;10.52;80.58
75697;BME280;64312;44.738;20.612;2023-01-19T01:12:02;98663.69;;;10.54;79.98
75697;BME280;64312;44.738;20.612;2023-01-19T01:14:28;98669.66;;;10.56;79.92
75697;BME280;64312;44.738;20.612;2023-01-19T01:16:54;98670.28;;;10.58;79.94
75697;BME280;64312;44.738;20.612;2023-01-19T01:19:19;98668.16;;;10.60;79.45
75697;BME280;64312;44.738;20.612;2023-01-19T01:21:45;98664.19;;;10.63;79.58
75697;BME280;64312;44.738;20.612;2023-01-19T01:24:11;98658.59;;;10.64;79.16
75697;BME280;64312;44.738;20.612;2023-01-19T01:26:37;98654.25;;;10.63;78.98
75697;BME280;64312;44.738;20.612;2023-01-19T01:29:04;98665.03;;;10.63;78.97
75697;BME280;64312;44.738;20.612;2023-01-19T01:31:30;98662.31;;;10.63;78.86
75697;BME280;64312;44.738;20.612;2023-01-19T01:33:56;98669.09;;;10.66;78.67
75697;BME280;64312;44.738;20.612;2023-01-19T01:36:21;98670.16;;;10.65;77.92
75697;BME280;64312;44.738;20.612;2023-01-19T01:38:47;98665.72;;;10.70;77.76
75697;BME280;64312;44.738;20.612;2023-01-19T01:41:13;98669.56;;;10.74;77.91
75697;BME280;64312;44.738;20.612;2023-01-19T01:43:48;98668.88;;;10.79;77.81
75697;BME280;64312;44.738;20.612;2023-01-19T01:46:16;98668.63;;;10.80;77.61
75697;BME280;64312;44.738;20.612;2023-01-19T01:48:44;98651.91;;;10.78;77.49
75697;BME280;64312;44.738;20.612;2023-01-19T01:51:15;98650.16;;;10.84;77.38
75697;BME280;64312;44.738;20.612;2023-01-19T01:56:49;98637.28;;;10.86;77.41
75697;BME280;64312;44.738;20.612;2023-01-19T01:59:22;98639.50;;;10.89;77.20
75697;BME280;64312;44.738;20.612;2023-01-19T02:02:03;98612.22;;;10.85;77.79
75697;BME280;64312;44.738;20.612;2023-01-19T02:04:52;98613.88;;;10.87;78.04
75697;BME280;64312;44.738;20.612;2023-01-19T02:07:27;98625.94;;;10.84;77.89
75697;BME280;64312;44.738;20.612;2023-01-19T02:10:16;98649.34;;;10.83;78.48
75697;BME280;64312;44.738;20.612;2023-01-19T02:13:02;98642.19;;;10.77;78.54
75697;BME280;64312;44.738;20.612;2023-01-19T02:15:48;98657.88;;;10.80;78.46
75697;BME280;64312;44.738;20.612;2023-01-19T02:18:14;98660.81;;;10.79;78.96
75697;BME280;64312;44.738;20.612;2023-01-19T02:20:44;98646.28;;;10.80;78.64
75697;BME280;64312;44.738;20.612;2023-01-19T02:23:19;98646.28;;;10.80;78.72
75697;BME280;64312;44.738;20.612;2023-01-19T02:25:47;98639.25;;;10.79;78.79
75697;BME280;64312;44.738;20.612;2023-01-19T02:28:14;98634.94;;;10.78;78.47
75697;BME280;64312;44.738;20.612;2023-01-19T02:30:40;98626.06;;;10.77;78.79
75697;BME280;64312;44.738;20.612;2023-01-19T02:33:05;98620.06;;;10.75;78.71
75697;BME280;64312;44.738;20.612;2023-01-19T02:35:33;98618.44;;;10.74;78.55
75697;BME280;64312;44.738;20.612;2023-01-19T02:38:02;98610.59;;;10.73;78.78
75697;BME280;64312;44.738;20.612;2023-01-19T02:40:28;98603.34;;;10.73;78.53
75697;BME280;64312;44.738;20.612;2023-01-19T02:42:57;98599.81;;;10.73;78.35
75697;BME280;64312;44.738;20.612;2023-01-19T02:45:26;98608.97;;;10.72;78.17
75697;BME280;64312;44.738;20.612;2023-01-19T02:47:51;98599.72;;;10.68;78.37
75697;BME280;64312;44.738;20.612;2023-01-19T02:53:11;98622.06;;;10.68;78.05
75697;BME280;64312;44.738;20.612;2023-01-19T02:55:49;98619.59;;;10.67;78.13
75697;BME280;64312;44.738;20.612;2023-01-19T03:03:32;98653.19;;;10.64;77.70
75697;BME280;64312;44.738;20.612;2023-01-19T03:06:32;98648.63;;;10.65;76.68
75697;BME280;64312;44.738;20.612;2023-01-19T03:09:06;98654.34;;;10.68;75.92
75697;BME280;64312;44.738;20.612;2023-01-19T03:11:37;98664.91;;;10.70;75.34
75697;BME280;64312;44.738;20.612;2023-01-19T03:14:09;98669.56;;;10.74;74.45
75697;BME280;64312;44.738;20.612;2023-01-19T03:17:07;98647.34;;;10.79;73.56
75697;BME280;64312;44.738;20.612;2023-01-19T03:19:37;98640.91;;;10.80;72.93
75697;BME280;64312;44.738;20.612;2023-01-19T03:22:06;98664.06;;;10.81;72.80
75697;BME280;64312;44.738;20.612;2023-01-19T03:24:35;98649.91;;;10.85;72.08
75697;BME280;64312;44.738;20.612;2023-01-19T03:27:07;98675.78;;;10.87;71.66
75697;BME280;64312;44.738;20.612;2023-01-19T03:29:35;98677.66;;;10.86;71.20
75697;BME280;64312;44.738;20.612;2023-01-19T03:32:06;98665.38;;;10.90;71.19
75697;BME280;64312;44.738;20.612;2023-01-19T03:34:35;98608.03;;;10.90;71.68
75697;BME280;64312;44.738;20.612;2023-01-19T03:37:03;98571.59;;;10.87;71.80
75697;BME280;64312;44.738;20.612;2023-01-19T03:39:30;98607.91;;;10.84;72.54
75697;BME280;64312;44.738;20.612;2023-01-19T03:42:05;98584.97;;;10.82;71.92
75697;BME280;64312;44.738;20.612;2023-01-19T03:44:35;98539.69;;;10.79;72.35
75697;BME280;64312;44.738;20.612;2023-01-19T03:47:01;98539.91;;;10.77;72.33
75697;BME280;64312;44.738;20.612;2023-01-19T03:49:31;98588.81;;;10.74;72.43
75697;BME280;64312;44.738;20.612;2023-01-19T03:51:58;98604.63;;;10.71;71.83
75697;BME280;64312;44.738;20.612;2023-01-19T03:54:25;98624.63;;;10.75;71.78
75697;BME280;64312;44.738;20.612;2023-01-19T03:56:50;98615.53;;;10.76;71.89
75697;BME280;64312;44.738;20.612;2023-01-19T03:59:17;98623.81;;;10.74;71.52
75697;BME280;64312;44.738;20.612;2023-01-19T04:01:45;98635.06;;;10.71;70.96
75697;BME280;64312;44.738;20.612;2023-01-19T04:04:10;98634.81;;;10.73;71.37
75697;BME280;64312;44.738;20.612;2023-01-19T04:06:38;98663.03;;;10.70;70.97
75697;BME280;64312;44.738;20.612;2023-01-19T04:09:04;98675.44;;;10.71;70.93
75697;BME280;64312;44.738;20.612;2023-01-19T04:11:30;98681.88;;;10.70;70.89
75697;BME280;64312;44.738;20.612;2023-01-19T04:13:56;98673.56;;;10.72;71.06
75697;BME280;64312;44.738;20.612;2023-01-19T04:16:22;98690.53;;;10.72;71.00
75697;BME280;64312;44.738;20.612;2023-01-19T04:18:48;98671.09;;;10.70;71.04
75697;BME280;64312;44.738;20.612;2023-01-19T04:21:15;98668.63;;;10.69;71.38
75697;BME280;64312;44.738;20.612;2023-01-19T04:23:40;98668.63;;;10.69;71.67
75697;BME280;64312;44.738;20.612;2023-01-19T04:26:07;98684.19;;;10.67;71.94
75697;BME280;64312;44.738;20.612;2023-01-19T04:28:33;98677.88;;;10.61;71.97
75697;BME280;64312;44.738;20.612;2023-01-19T04:30:59;98698.72;;;10.66;71.71
75697;BME280;64312;44.738;20.612;2023-01-19T04:33:26;98693.56;;;10.64;71.78
75697;BME280;64312;44.738;20.612;2023-01-19T04:35:52;98701.88;;;10.63;71.55
75697;BME280;64312;44.738;20.612;2023-01-19T04:38:19;98692.97;;;10.62;71.16
75697;BME280;64312;44.738;20.612;2023-01-19T04:40:45;98704.78;;;10.61;71.65
75697;BME280;64312;44.738;20.612;2023-01-19T04:43:11;98710.41;;;10.60;71.93
75697;BME280;64312;44.738;20.612;2023-01-19T04:45:37;98708.53;;;10.60;71.99
75697;BME280;64312;44.738;20.612;2023-01-19T04:48:03;98690.16;;;10.57;71.81
75697;BME280;64312;44.738;20.612;2023-01-19T04:50:29;98692.03;;;10.56;71.88
75697;BME280;64312;44.738;20.612;2023-01-19T04:52:55;98686.03;;;10.54;71.90
75697;BME280;64312;44.738;20.612;2023-01-19T04:55:21;98668.84;;;10.55;71.96
75697;BME280;64312;44.738;20.612;2023-01-19T04:57:47;98664.75;;;10.53;71.76
75697;BME280;64312;44.738;20.612;2023-01-19T05:00:13;98652.13;;;10.53;72.58
75697;BME280;64312;44.738;20.612;2023-01-19T05:02:39;98661.00;;;10.54;72.76
75697;BME280;64312;44.738;20.612;2023-01-19T05:05:07;98673.66;;;10.53;72.76
75697;BME280;64312;44.738;20.612;2023-01-19T05:07:32;98668.50;;;10.52;73.24
75697;BME280;64312;44.738;20.612;2023-01-19T05:09:59;98651.19;;;10.48;73.65
75697;BME280;64312;44.738;20.612;2023-01-19T05:12:25;98634.31;;;10.41;74.07
75697;BME280;64312;44.738;20.612;2023-01-19T05:14:50;98632.69;;;10.40;74.04
75697;BME280;64312;44.738;20.612;2023-01-19T05:17:17;98644.13;;;10.35;74.59
75697;BME280;64312;44.738;20.612;2023-01-19T05:19:42;98659.13;;;10.31;74.68
75697;BME280;64312;44.738;20.612;2023-01-19T05:22:10;98668.44;;;10.28;74.41
75697;BME280;64312;44.738;20.612;2023-01-19T05:24:35;98688.34;;;10.27;75.16
75697;BME280;64312;44.738;20.612;2023-01-19T05:27:01;98685.28;;;10.24;75.12
75697;BME280;64312;44.738;20.612;2023-01-19T05:29:27;98677.88;;;10.19;74.74
75697;BME280;64312;44.738;20.612;2023-01-19T05:31:53;98668.75;;;10.20;75.49
75697;BME280;64312;44.738;20.612;2023-01-19T05:34:19;98668.19;;;10.18;75.41
75697;BME280;64312;44.738;20.612;2023-01-19T05:36:44;98682.66;;;10.17;75.16
75697;BME280;64312;44.738;20.612;2023-01-19T05:39:10;98696.94;;;10.18;75.00
75697;BME280;64312;44.738;20.612;2023-01-19T05:41:36;98698.78;;;10.17;75.16
75697;BME280;64312;44.738;20.612;2023-01-19T05:44:01;98726.53;;;10.18;74.97
75697;BME280;64312;44.738;20.612;2023-01-19T05:46:27;98710.16;;;10.19;75.43
75697;BME280;64312;44.738;20.612;2023-01-19T05:48:52;98706.84;;;10.17;74.80
75697;BME280;64312;44.738;20.612;2023-01-19T05:51:18;98716.09;;;10.21;74.89
75697;BME280;64312;44.738;20.612;2023-01-19T05:53:44;98708.50;;;10.18;75.05
75697;BME280;64312;44.738;20.612;2023-01-19T05:56:10;98733.06;;;10.22;75.05
75697;BME280;64312;44.738;20.612;2023-01-19T05:58:36;98718.81;;;10.21;74.78
75697;BME280;64312;44.738;20.612;2023-01-19T06:01:05;98721.66;;;10.26;74.00
75697;BME280;64312;44.738;20.612;2023-01-19T06:03:32;98710.31;;;10.24;74.32
75697;BME280;64312;44.738;20.612;2023-01-19T06:05:58;98700.97;;;10.27;73.78
75697;BME280;64312;44.738;20.612;2023-01-19T06:08:24;98687.88;;;10.30;73.52
75697;BME280;64312;44.738;20.612;2023-01-19T06:10:50;98687.88;;;10.30;73.61
75697;BME280;64312;44.738;20.612;2023-01-19T06:13:16;98672.03;;;10.22;73.74
75697;BME280;64312;44.738;20.612;2023-01-19T06:15:42;98683.19;;;10.26;74.06
75697;BME280;64312;44.738;20.612;2023-01-19T06:18:10;98690.03;;;10.22;73.79
75697;BME280;64312;44.738;20.612;2023-01-19T06:20:35;98708.84;;;10.22;73.66
75697;BME280;64312;44.738;20.612;2023-01-19T06:23:01;98678.69;;;10.20;73.89
75697;BME280;64312;44.738;20.612;2023-01-19T06:25:28;98678.31;;;10.16;73.89
75697;BME280;64312;44.738;20.612;2023-01-19T06:27:53;98683.25;;;10.19;73.84
75697;BME280;64312;44.738;20.612;2023-01-19T06:30:19;98681.81;;;10.17;73.37
75697;BME280;64312;44.738;20.612;2023-01-19T06:32:44;98673.31;;;10.20;73.68
75697;BME280;64312;44.738;20.612;2023-01-19T06:35:10;98677.66;;;10.21;73.31
75697;BME280;64312;44.738;20.612;2023-01-19T06:37:36;98685.47;;;10.22;73.14
75697;BME280;64312;44.738;20.612;2023-01-19T06:40:02;98680.09;;;10.22;72.82
75697;BME280;64312;44.738;20.612;2023-01-19T06:42:28;98695.81;;;10.25;73.01
75697;BME280;64312;44.738;20.612;2023-01-19T06:44:54;98687.13;;;10.23;72.61
75697;BME280;64312;44.738;20.612;2023-01-19T06:47:19;98685.41;;;10.29;73.04
75697;BME280;64312;44.738;20.612;2023-01-19T06:49:45;98690.59;;;10.30;72.83
75697;BME280;64312;44.738;20.612;2023-01-19T06:52:11;98696.53;;;10.33;72.71
75697;BME280;64312;44.738;20.612;2023-01-19T06:54:40;98689.03;;;10.35;72.73
75697;BME280;64312;44.738;20.612;2023-01-19T06:57:08;98688.38;;;10.39;72.69
75697;BME280;64312;44.738;20.612;2023-01-19T06:59:33;98684.63;;;10.40;72.80
75697;BME280;64312;44.738;20.612;2023-01-19T07:01:59;98701.13;;;10.44;72.24
75697;BME280;64312;44.738;20.612;2023-01-19T07:04:25;98689.09;;;10.46;72.03
75697;BME280;64312;44.738;20.612;2023-01-19T07:06:51;98691.09;;;10.51;72.06
75697;BME280;64312;44.738;20.612;2023-01-19T07:09:17;98698.09;;;10.52;72.06
75697;BME280;64312;44.738;20.612;2023-01-19T07:11:45;98729.09;;;10.54;72.02
75697;BME280;64312;44.738;20.612;2023-01-19T07:14:11;98729.47;;;10.58;72.04
75697;BME280;64312;44.738;20.612;2023-01-19T07:16:36;98732.75;;;10.60;71.68
75697;BME280;64312;44.738;20.612;2023-01-19T07:19:03;98736.25;;;10.61;71.51
75697;BME280;64312;44.738;20.612;2023-01-19T07:21:28;98740.94;;;10.65;71.73
75697;BME280;64312;44.738;20.612;2023-01-19T07:23:54;98743.97;;;10.69;71.78
75697;BME280;64312;44.738;20.612;2023-01-19T07:26:20;98743.28;;;10.73;71.58
75697;BME280;64312;44.738;20.612;2023-01-19T07:28:47;98734.97;;;10.75;71.71
75697;BME280;64312;44.738;20.612;2023-01-19T07:31:13;98737.09;;;10.73;71.12
75697;BME280;64312;44.738;20.612;2023-01-19T07:33:39;98743.44;;;10.78;71.62
75697;BME280;64312;44.738;20.612;2023-01-19T07:36:05;98743.44;;;10.78;71.35
75697;BME280;64312;44.738;20.612;2023-01-19T07:38:31;98752.91;;;10.81;71.54
75697;BME280;64312;44.738;20.612;2023-01-19T07:41:01;98758.06;;;10.82;71.24
75697;BME280;64312;44.738;20.612;2023-01-19T07:43:27;98751.63;;;10.83;71.17
75697;BME280;64312;44.738;20.612;2023-01-19T07:46:00;98748.94;;;10.83;71.19
75697;BME280;64312;44.738;20.612;2023-01-19T07:48:26;98757.97;;;10.89;71.06
75697;BME280;64312;44.738;20.612;2023-01-19T07:50:52;98766.16;;;10.94;71.38
75697;BME280;64312;44.738;20.612;2023-01-19T07:53:18;98768.16;;;10.99;71.27
75697;BME280;64312;44.738;20.612;2023-01-19T07:55:44;98784.44;;;11.04;71.35
75697;BME280;64312;44.738;20.612;2023-01-19T07:58:10;98775.66;;;11.08;71.31
75697;BME280;64312;44.738;20.612;2023-01-19T08:00:37;98772.25;;;11.13;70.73
75697;BME280;64312;44.738;20.612;2023-01-19T08:03:04;98769.25;;;11.21;70.70
75697;BME280;64312;44.738;20.612;2023-01-19T08:05:30;98767.81;;;11.30;70.68
75697;BME280;64312;44.738;20.612;2023-01-19T08:07:57;98766.41;;;11.39;70.76
75697;BME280;64312;44.738;20.612;2023-01-19T08:10:24;98762.53;;;11.47;69.93
75697;BME280;64312;44.738;20.612;2023-01-19T08:12:52;98761.00;;;11.51;70.05
75697;BME280;64312;44.738;20.612;2023-01-19T08:15:20;98742.25;;;11.56;69.84
75697;BME280;64312;44.738;20.612;2023-01-19T08:18:02;98749.16;;;11.64;69.47
75697;BME280;64312;44.738;20.612;2023-01-19T08:20:34;98744.44;;;11.71;69.31
75697;BME280;64312;44.738;20.612;2023-01-19T08:22:59;98734.59;;;11.77;69.31
75697;BME280;64312;44.738;20.612;2023-01-19T08:25:42;98743.19;;;11.85;69.40
75697;BME280;64312;44.738;20.612;2023-01-19T08:28:13;98736.22;;;11.89;69.08
75697;BME280;64312;44.738;20.612;2023-01-19T08:30:40;98724.97;;;11.92;68.46
75697;BME280;64312;44.738;20.612;2023-01-19T08:33:08;98737.16;;;11.95;68.25
75697;BME280;64312;44.738;20.612;2023-01-19T08:35:38;98730.94;;;11.95;67.90
75697;BME280;64312;44.738;20.612;2023-01-19T08:38:05;98739.13;;;12.00;67.93
75697;BME280;64312;44.738;20.612;2023-01-19T08:40:33;98737.38;;;12.05;67.92
75697;BME280;64312;44.738;20.612;2023-01-19T08:43:22;98732.91;;;12.11;67.78
75697;BME280;64312;44.738;20.612;2023-01-19T08:45:50;98741.81;;;12.11;68.06
75697;BME280;64312;44.738;20.612;2023-01-19T08:48:21;98761.34;;;12.18;66.86
75697;BME280;64312;44.738;20.612;2023-01-19T08:50:47;98770.59;;;12.23;66.65
75697;BME280;64312;44.738;20.612;2023-01-19T08:53:14;98768.25;;;12.26;66.89
75697;BME280;64312;44.738;20.612;2023-01-19T08:55:40;98763.16;;;12.30;66.59
75697;BME280;64312;44.738;20.612;2023-01-19T08:58:06;98765.16;;;12.34;66.13
75697;BME280;64312;44.738;20.612;2023-01-19T09:00:35;98770.91;;;12.38;66.05
75697;BME280;64312;44.738;20.612;2023-01-19T09:03:06;98785.06;;;12.45;65.72
75697;BME280;64312;44.738;20.612;2023-01-19T09:05:34;98782.53;;;12.55;65.69
75697;BME280;64312;44.738;20.612;2023-01-19T09:08:03;98787.22;;;12.60;65.20
75697;BME280;64312;44.738;20.612;2023-01-19T09:10:29;98794.69;;;12.69;65.36
75697;BME280;64312;44.738;20.612;2023-01-19T09:13:08;98786.66;;;12.74;64.65
75697;BME280;64312;44.738;20.612;2023-01-19T09:15:38;98790.88;;;12.82;64.91
75697;BME280;64312;44.738;20.612;2023-01-19T09:18:08;98784.50;;;12.88;64.42
75697;BME280;64312;44.738;20.612;2023-01-19T09:20:35;98794.22;;;12.89;63.99
75697;BME280;64312;44.738;20.612;2023-01-19T09:23:03;98789.38;;;12.91;63.58
75697;BME280;64312;44.738;20.612;2023-01-19T09:25:30;98795.34;;;12.93;63.34
75697;BME280;64312;44.738;20.612;2023-01-19T09:27:55;98783.47;;;12.94;63.50
75697;BME280;64312;44.738;20.612;2023-01-19T09:30:21;98775.06;;;12.91;63.62
75697;BME280;64312;44.738;20.612;2023-01-19T09:32:46;98784.56;;;12.93;63.24
75697;BME280;64312;44.738;20.612;2023-01-19T09:35:12;98783.19;;;12.91;63.29
75697;BME280;64312;44.738;20.612;2023-01-19T09:37:38;98768.50;;;12.87;63.50
75697;BME280;64312;44.738;20.612;2023-01-19T09:40:04;98787.19;;;12.88;63.44
75697;BME280;64312;44.738;20.612;2023-01-19T09:45:06;98780.63;;;12.84;63.39
75697;BME280;64312;44.738;20.612;2023-01-19T09:47:35;98782.75;;;12.82;62.84
75697;BME280;64312;44.738;20.612;2023-01-19T09:50:12;98768.19;;;12.83;63.27
75697;BME280;64312;44.738;20.612;2023-01-19T09:52:42;98783.34;;;12.84;63.28
75697;BME280;64312;44.738;20.612;2023-01-19T09:55:21;98793.06;;;12.85;62.71
75697;BME280;64312;44.738;20.612;2023-01-19T09:57:47;98801.25;;;12.90;63.08
75697;BME280;64312;44.738;20.612;2023-01-19T10:00:15;98795.34;;;12.93;62.92
75697;BME280;64312;44.738;20.612;2023-01-19T10:02:45;98794.88;;;12.96;62.65
75697;BME280;64312;44.738;20.612;2023-01-19T10:10:34;98824.53;;;13.08;62.76
75697;BME280;64312;44.738;20.612;2023-01-19T10:18:25;98838.56;;;13.22;61.93
75697;BME280;64312;44.738;20.612;2023-01-19T10:21:14;98827.59;;;13.28;62.20
75697;BME280;64312;44.738;20.612;2023-01-19T10:24:03;98815.16;;;13.27;62.30
75697;BME280;64312;44.738;20.612;2023-01-19T10:26:33;98823.75;;;13.41;62.11
75697;BME280;64312;44.738;20.612;2023-01-19T10:29:07;98816.38;;;13.53;62.74
75697;BME280;64312;44.738;20.612;2023-01-19T10:31:36;98787.75;;;13.58;61.53
75697;BME280;64312;44.738;20.612;2023-01-19T10:34:04;98784.13;;;13.69;61.76
75697;BME280;64312;44.738;20.612;2023-01-19T10:36:33;98774.75;;;13.76;61.13
75697;BME280;64312;44.738;20.612;2023-01-19T10:39:00;98781.06;;;13.82;60.17
75697;BME280;64312;44.738;20.612;2023-01-19T10:41:40;98807.03;;;13.83;59.95
75697;BME280;64312;44.738;20.612;2023-01-19T10:44:07;98810.38;;;13.90;59.42
75697;BME280;64312;44.738;20.612;2023-01-19T10:49:04;98827.47;;;13.96;58.85
75697;BME280;64312;44.738;20.612;2023-01-19T10:51:30;98838.94;;;14.03;58.33
75697;BME280;64312;44.738;20.612;2023-01-19T10:56:26;98841.78;;;14.13;58.40
75697;BME280;64312;44.738;20.612;2023-01-19T10:58:53;98835.31;;;14.14;57.84
75697;BME280;64312;44.738;20.612;2023-01-19T11:01:21;98842.69;;;14.19;58.00
75697;BME280;64312;44.738;20.612;2023-01-19T11:03:48;98842.16;;;14.22;58.51
75697;BME280;64312;44.738;20.612;2023-01-19T11:08:42;98832.47;;;14.26;58.56
75697;BME280;64312;44.738;20.612;2023-01-19T11:11:08;98835.66;;;14.23;58.44
75697;BME280;64312;44.738;20.612;2023-01-19T11:13:35;98841.41;;;14.26;58.41
75697;BME280;64312;44.738;20.612;2023-01-19T11:18:41;98843.75;;;14.40;57.70
75697;BME280;64312;44.738;20.612;2023-01-19T11:21:14;98844.06;;;14.43;57.41
75697;BME280;64312;44.738;20.612;2023-01-19T11:23:52;98842.81;;;14.51;56.92
75697;BME280;64312;44.738;20.612;2023-01-19T11:28:53;98851.94;;;14.67;56.20
75697;BME280;64312;44.738;20.612;2023-01-19T11:33:57;98849.81;;;14.74;54.76
75697;BME280;64312;44.738;20.612;2023-01-19T11:36:25;98853.34;;;14.74;53.02
75697;BME280;64312;44.738;20.612;2023-01-19T11:38:55;98844.72;;;14.77;51.05
75697;BME280;64312;44.738;20.612;2023-01-19T11:43:55;98855.00;;;14.75;51.90
75697;BME280;64312;44.738;20.612;2023-01-19T11:46:23;98838.44;;;14.72;51.86
75697;BME280;64312;44.738;20.612;2023-01-19T11:49:10;98863.34;;;14.69;51.44
75697;BME280;64312;44.738;20.612;2023-01-19T11:51:51;98866.53;;;14.66;51.79
75697;BME280;64312;44.738;20.612;2023-01-19T11:54:24;98877.13;;;14.67;51.98
75697;BME280;64312;44.738;20.612;2023-01-19T11:56:53;98876.31;;;14.67;51.03
75697;BME280;64312;44.738;20.612;2023-01-19T11:59:21;98887.13;;;14.67;50.67
75697;BME280;64312;44.738;20.612;2023-01-19T12:01:55;98879.28;;;14.65;50.31
75697;BME280;64312;44.738;20.612;2023-01-19T12:04:32;98888.78;;;14.68;50.92
75697;BME280;64312;44.738;20.612;2023-01-19T12:07:02;98887.91;;;14.62;50.60
75697;BME280;64312;44.738;20.612;2023-01-19T12:09:39;98901.13;;;14.58;50.76
75697;BME280;64312;44.738;20.612;2023-01-19T12:17:06;98911.16;;;14.41;48.93
75697;BME280;64312;44.738;20.612;2023-01-19T12:19:45;98912.13;;;14.30;47.63
75697;BME280;64312;44.738;20.612;2023-01-19T12:22:16;98930.09;;;14.19;47.24
75697;BME280;64312;44.738;20.612;2023-01-19T12:24:53;98943.81;;;14.13;47.94
75697;BME280;64312;44.738;20.612;2023-01-19T12:27:41;98947.25;;;14.08;50.06
75697;BME280;64312;44.738;20.612;2023-01-19T12:30:15;98955.81;;;14.00;47.99
75697;BME280;64312;44.738;20.612;2023-01-19T12:32:43;98994.00;;;13.87;52.56
75697;BME280;64312;44.738;20.612;2023-01-19T12:46:37;99089.50;;;11.59;65.75
75697;BME280;64312;44.738;20.612;2023-01-19T12:49:11;99082.78;;;11.32;67.69
75697;BME280;64312;44.738;20.612;2023-01-19T12:51:43;99074.81;;;11.07;67.60
75697;BME280;64312;44.738;20.612;2023-01-19T12:54:24;99057.75;;;10.95;67.81
75697;BME280;64312;44.738;20.612;2023-01-19T12:56:57;99089.19;;;10.82;67.58
75697;BME280;64312;44.738;20.612;2023-01-19T12:59:26;99093.53;;;10.83;67.89
75697;BME280;64312;44.738;20.612;2023-01-19T13:10:54;99103.50;;;11.01;64.56
75697;BME280;64312;44.738;20.612;2023-01-19T13:13:35;99100.09;;;11.06;64.92
75697;BME280;64312;44.738;20.612;2023-01-19T13:24:12;99127.78;;;11.13;65.21
75697;BME280;64312;44.738;20.612;2023-01-19T13:26:52;99128.00;;;11.11;63.85
75697;BME280;64312;44.738;20.612;2023-01-19T13:29:38;99119.03;;;10.99;64.89
75697;BME280;64312;44.738;20.612;2023-01-19T13:32:14;99105.63;;;10.93;64.66
75697;BME280;64312;44.738;20.612;2023-01-19T13:34:44;99106.69;;;10.92;65.89
75697;BME280;64312;44.738;20.612;2023-01-19T13:37:17;99111.84;;;10.93;65.41
75697;BME280;64312;44.738;20.612;2023-01-19T13:39:44;99114.25;;;11.01;65.02
75697;BME280;64312;44.738;20.612;2023-01-19T13:42:28;99110.44;;;11.09;64.76
75697;BME280;64312;44.738;20.612;2023-01-19T13:44:58;99105.41;;;11.12;65.00
75697;BME280;64312;44.738;20.612;2023-01-19T13:47:51;99118.38;;;11.22;64.60
75697;BME280;64312;44.738;20.612;2023-01-19T13:50:20;99130.94;;;11.28;64.49
75697;BME280;64312;44.738;20.612;2023-01-19T13:52:46;99144.56;;;11.33;64.00
75697;BME280;64312;44.738;20.612;2023-01-19T13:55:14;99161.41;;;11.29;63.53
75697;BME280;64312;44.738;20.612;2023-01-19T13:57:45;99166.84;;;11.22;63.68
75697;BME280;64312;44.738;20.612;2023-01-19T14:05:14;99160.16;;;11.06;63.74
75697;BME280;64312;44.738;20.612;2023-01-19T14:07:40;99177.69;;;10.97;64.51
75697;BME280;64312;44.738;20.612;2023-01-19T14:10:11;99158.97;;;10.84;65.45
75697;BME280;64312;44.738;20.612;2023-01-19T14:12:37;99185.94;;;10.77;65.56
75697;BME280;64312;44.738;20.612;2023-01-19T14:15:03;99190.06;;;10.55;66.03
75697;BME280;64312;44.738;20.612;2023-01-19T14:17:31;99200.72;;;10.43;65.31
75697;BME280;64312;44.738;20.612;2023-01-19T14:19:58;99214.91;;;10.25;66.48